Terminal Aerodrome Forecast
Issued by NWS Cleveland, OH

Home | Current Version | Previous Version | Text Only | Print | Product List | Glossary Off
Versions: 1 2 3 4 5 6 7 8 9 10 11 12 13 14 15 16 17 18 19 20 21 22 23 24 25 26

000
FTUS41 KCLE 260850 AAA
TAFCLE
TAF AMD
KCLE 260850Z 2609/2712 18010KT P6SM SCT080 BKN250
     FM261200 18010KT P6SM VCSH SCT050 BKN080
     FM261600 21010KT P6SM SCT050
     FM270000 20007KT P6SM SCT080=

USA.gov is the U.S. government's official web portal to all federal, state and local government web resources and services.